Flight Number: EUR3022 Duration: 11:00
Departure: Moscow Sheremetyevo (UUEE) at 08:00 Distance: 4386 Nm
Arrival: Indianapolis Intl Airport (KIND) at 19:00 Equipment: B777

Weather Information
Moscow / Sheremet'Ye , Russia (UUEE) 55-59N 037-30E Feb 19, 2018 - 02:30 AM EST / 2018.02.19 0730 UTC
Wind: from the NNW (340 degrees) at 4 MPH (4 KT):0
Visibility: 2 mile(s):0
Sky conditions: overcast Weather: light snow; mist Temperature: 24 F (-4 C) Dew Point: 23 F (-5 C) Relative Humidity: 92% Pressure (altimeter): 29.94 in. Hg (1014 hPa)
ob: UUEE 190730Z 34002MPS 3400 -SN BR OVC022 M04/M05 Q1014 R06L/490326 R06R/490326 NOSIG cycle: 7
Sunrise: 04:49 Sunset: 14:38 (UTC)

INDIANAPOLIS INTERNATIONAL AIRPORT , IN, United States (KIND) 39-43N 86-17W 242M Feb 19, 2018 - 02:38 AM EST / 2018.02.19 0738 UTC
Wind: from the SSE (160 degrees) at 14 MPH (12 KT):0
Visibility: 10 mile(s):0
Sky conditions: mostly cloudy Temperature: 45.0 F (7.2 C) Dew Point: 34.0 F (1.1 C) Relative Humidity: 65% Pressure (altimeter): 29.98 in. Hg (1015 hPa)
ob: KIND 190738Z 16012KT 10SM SCT027 BKN065 BKN095 07/01 A2998 RMK AO2 T00720011 cycle: 7
Sunrise: 12:34 Sunset: 23:23 (UTC)

TAF:2018/02/19 07:15 TAF AMD KIND 190712Z 1907/2012 18011KT P6SM VCSH OVC025 WS020/22045KT FM190900 19011KT 5SM SHRA OVC015 WS020/22045KT FM191600 20015G23KT 5SM SHRA OVC008 WS020/22045KT FM191800 21017G28KT P6SM VCSH OVC010 WS020/22050KT FM192300 20014KT P6SM VCSH OVC045 WS020/21040KT

This route has never been flown.

Route map